Time;durP1;ratioP1;P1;durP2;ratioP2;P2;SDS_P1;SDS_P2;PMS_P1;PMS_P2;Temp;Humidity;BMP_temperature;BMP_pressure;BME280_temperature;BME280_humidity;BME280_pressure;Samples;Min_cycle;Max_cycle;Signal;HPM_P1;HPM_P2
2023/09/23 00:00:46;;;;;;;4.90;1.77;;;;;;;;;;4998203;28;93128;-59
2023/09/23 00:03:12;;;;;;;3.70;1.40;;;;;;;;;;4993195;28;94751;-59
2023/09/23 00:05:39;;;;;;;2.65;1.38;;;;;;;;;;4994040;28;92579;-60
2023/09/23 00:08:06;;;;;;;3.25;1.27;;;;;;;;;;4992119;28;93158;-60
2023/09/23 00:10:34;;;;;;;2.22;1.55;;;;;;;;;;4989958;28;93463;-60
2023/09/23 00:13:00;;;;;;;9.07;1.40;;;;;;;;;;4990342;28;92481;-60
2023/09/23 00:15:27;;;;;;;1.80;1.52;;;;;;;;;;4990481;28;95530;-60
2023/09/23 00:17:55;;;;;;;3.35;1.45;;;;;;;;;;4993724;28;93393;-59
2023/09/23 00:20:22;;;;;;;1.60;1.50;;;;;;;;;;4994172;28;92607;-59
2023/09/23 00:22:53;;;;;;;1.95;1.80;;;;;;;;;;4988836;28;93381;-60
2023/09/23 00:25:20;;;;;;;2.10;1.50;;;;;;;;;;4998167;28;92513;-59
2023/09/23 00:27:46;;;;;;;8.85;2.13;;;;;;;;;;4991075;28;93096;-59
2023/09/23 00:30:13;;;;;;;3.30;2.20;;;;;;;;;;4990127;28;94402;-59
2023/09/23 00:32:41;;;;;;;5.32;2.30;;;;;;;;;;4994980;28;91792;-60
2023/09/23 00:35:11;;;;;;;3.60;2.63;;;;;;;;;;4995147;28;92540;-59
2023/09/23 00:37:40;;;;;;;4.10;2.50;;;;;;;;;;4994346;28;93494;-60
2023/09/23 00:40:13;;;;;;;2.95;2.47;;;;;;;;;;4992658;28;94856;-58
2023/09/23 00:42:39;;;;;;;3.65;2.90;;;;;;;;;;4997337;28;95380;-59
2023/09/23 00:45:06;;;;;;;3.70;2.63;;;;;;;;;;4991724;28;92582;-59
2023/09/23 00:47:33;;;;;;;5.10;3.67;;;;;;;;;;4991910;28;93068;-60
2023/09/23 00:50:03;;;;;;;11.77;3.65;;;;;;;;;;4995035;28;94376;-60
2023/09/23 00:52:30;;;;;;;4.28;3.70;;;;;;;;;;4994572;28;93179;-59
2023/09/23 00:54:56;;;;;;;7.30;3.75;;;;;;;;;;4992740;28;93222;-59
2023/09/23 00:57:23;;;;;;;5.25;4.00;;;;;;;;;;4995609;28;92385;-59
2023/09/23 00:59:49;;;;;;;7.32;4.70;;;;;;;;;;4993963;28;92495;-59
2023/09/23 01:02:16;;;;;;;5.57;4.03;;;;;;;;;;4993140;28;93088;-59
2023/09/23 01:04:43;;;;;;;5.43;4.53;;;;;;;;;;4991384;28;96780;-59
2023/09/23 01:07:10;;;;;;;8.63;4.68;;;;;;;;;;4994282;28;96742;-59
2023/09/23 01:09:37;;;;;;;7.90;4.75;;;;;;;;;;4988721;28;93413;-59
2023/09/23 01:12:04;;;;;;;7.75;5.05;;;;;;;;;;4989959;28;92845;-59
2023/09/23 01:14:31;;;;;;;6.60;5.88;;;;;;;;;;4990816;28;93055;-60
2023/09/23 01:16:58;;;;;;;10.00;5.93;;;;;;;;;;4988097;28;94380;-59
2023/09/23 01:19:26;;;;;;;7.22;5.78;;;;;;;;;;4991124;28;94034;-60
2023/09/23 01:21:54;;;;;;;6.28;5.68;;;;;;;;;;4992600;28;93474;-60
2023/09/23 01:24:20;;;;;;;8.90;7.10;;;;;;;;;;4992585;28;92370;-58
2023/09/23 01:26:51;;;;;;;11.32;7.80;;;;;;;;;;4995689;28;92821;-60
2023/09/23 01:29:22;;;;;;;9.93;7.32;;;;;;;;;;4987870;28;95556;-59
2023/09/23 01:31:57;;;;;;;9.02;7.72;;;;;;;;;;4990018;28;92510;-59
2023/09/23 01:34:23;;;;;;;11.13;8.27;;;;;;;;;;4990225;28;92932;-59
2023/09/23 01:36:49;;;;;;;9.30;7.85;;;;;;;;;;4990128;28;93401;-60
2023/09/23 01:39:16;;;;;;;9.80;8.13;;;;;;;;;;4991793;28;92562;-60
2023/09/23 01:41:42;;;;;;;10.27;8.13;;;;;;;;;;4993657;28;93114;-60
2023/09/23 01:44:09;;;;;;;10.98;7.53;;;;;;;;;;4992637;28;93370;-60
2023/09/23 01:46:37;;;;;;;11.32;8.43;;;;;;;;;;4995339;28;91943;-60
2023/09/23 01:49:03;;;;;;;10.48;8.20;;;;;;;;;;4986793;28;93438;-59
2023/09/23 01:51:30;;;;;;;11.60;8.25;;;;;;;;;;4991638;28;92521;-59
2023/09/23 01:53:57;;;;;;;17.45;9.43;;;;;;;;;;4987515;28;95397;-60
2023/09/23 01:56:24;;;;;;;13.65;9.48;;;;;;;;;;4990799;28;93440;-60
2023/09/23 01:58:50;;;;;;;11.85;9.88;;;;;;;;;;4988207;28;92912;-60
2023/09/23 02:01:16;;;;;;;14.35;10.07;;;;;;;;;;4988683;28;94071;-60
2023/09/23 02:03:43;;;;;;;17.48;10.95;;;;;;;;;;4992053;28;94405;-59
2023/09/23 02:06:10;;;;;;;12.98;10.35;;;;;;;;;;4991278;28;93829;-60
2023/09/23 02:08:37;;;;;;;12.10;10.77;;;;;;;;;;4993222;28;93108;-60
2023/09/23 02:11:03;;;;;;;13.05;10.75;;;;;;;;;;4987994;28;92222;-60
2023/09/23 02:13:29;;;;;;;17.05;11.10;;;;;;;;;;4989240;28;92452;-59
2023/09/23 02:15:57;;;;;;;17.75;11.20;;;;;;;;;;4988846;28;94485;-60
2023/09/23 02:18:23;;;;;;;17.92;11.63;;;;;;;;;;4990562;28;94885;-59
2023/09/23 02:20:50;;;;;;;14.52;11.48;;;;;;;;;;4991563;28;95558;-59
2023/09/23 02:23:16;;;;;;;14.65;11.82;;;;;;;;;;4991876;28;93393;-58
2023/09/23 02:25:44;;;;;;;17.67;12.05;;;;;;;;;;4987842;28;92758;-59
2023/09/23 02:28:10;;;;;;;17.67;11.90;;;;;;;;;;4989361;28;93614;-59
2023/09/23 02:30:37;;;;;;;16.50;12.88;;;;;;;;;;4991900;28;93324;-59
2023/09/23 02:33:03;;;;;;;18.13;12.48;;;;;;;;;;4988996;28;93235;-60
2023/09/23 02:35:30;;;;;;;19.60;13.55;;;;;;;;;;4990795;28;93432;-58
2023/09/23 02:37:58;;;;;;;20.63;13.05;;;;;;;;;;4987800;28;92491;-59
2023/09/23 02:40:27;;;;;;;20.27;13.38;;;;;;;;;;4990939;28;96642;-59
2023/09/23 02:42:59;;;;;;;17.77;13.07;;;;;;;;;;4988078;28;95816;-59
2023/09/23 02:45:26;;;;;;;17.50;13.45;;;;;;;;;;4985549;28;93037;-60
2023/09/23 02:47:52;;;;;;;20.95;13.82;;;;;;;;;;4990292;28;93275;-59
2023/09/23 02:50:19;;;;;;;19.20;14.02;;;;;;;;;;4989079;28;93987;-59
2023/09/23 02:52:48;;;;;;;18.15;14.50;;;;;;;;;;4990589;28;92449;-59
2023/09/23 02:55:16;;;;;;;18.90;14.23;;;;;;;;;;4990472;28;94424;-59
2023/09/23 02:57:46;;;;;;;18.88;13.70;;;;;;;;;;4986377;28;94156;-59
2023/09/23 03:00:16;;;;;;;23.73;15.02;;;;;;;;;;4988338;28;94216;-59
2023/09/23 03:02:45;;;;;;;18.02;14.65;;;;;;;;;;4989691;28;93407;-60
2023/09/23 03:05:16;;;;;;;22.58;15.15;;;;;;;;;;4990843;28;92426;-61
2023/09/23 03:07:43;;;;;;;19.83;14.60;;;;;;;;;;4987360;28;95441;-61
2023/09/23 03:10:13;;;;;;;19.40;14.77;;;;;;;;;;4992670;28;92694;-60
2023/09/23 03:12:51;;;;;;;25.47;13.97;;;;;;;;;;4983898;28;92458;-60
2023/09/23 03:15:20;;;;;;;20.95;15.45;;;;;;;;;;4993962;28;93157;-60
2023/09/23 03:17:51;;;;;;;24.15;14.55;;;;;;;;;;4988922;28;95960;-61
2023/09/23 03:20:21;;;;;;;25.85;15.55;;;;;;;;;;4990577;28;93711;-60
2023/09/23 03:22:49;;;;;;;24.60;15.50;;;;;;;;;;4990576;28;94470;-61
2023/09/23 03:25:20;;;;;;;24.20;15.63;;;;;;;;;;4988887;28;91760;-60
2023/09/23 03:27:47;;;;;;;20.95;15.10;;;;;;;;;;4989582;28;93366;-61
2023/09/23 03:30:14;;;;;;;21.63;14.80;;;;;;;;;;4990504;28;94454;-61
2023/09/23 03:32:41;;;;;;;19.98;15.10;;;;;;;;;;4988808;28;94861;-61
2023/09/23 03:35:13;;;;;;;19.33;14.85;;;;;;;;;;4990929;28;95559;-61
2023/09/23 03:37:40;;;;;;;27.63;15.25;;;;;;;;;;4988865;28;92431;-61
2023/09/23 03:40:07;;;;;;;23.33;14.48;;;;;;;;;;4986127;28;93120;-61
2023/09/23 03:42:34;;;;;;;25.00;15.18;;;;;;;;;;4990778;28;94476;-60
2023/09/23 03:45:03;;;;;;;25.00;14.75;;;;;;;;;;4986739;28;92974;-60
2023/09/23 03:47:29;;;;;;;20.92;15.23;;;;;;;;;;4986089;28;93385;-60
2023/09/23 03:49:56;;;;;;;21.55;15.07;;;;;;;;;;4991507;28;93550;-60
2023/09/23 03:52:24;;;;;;;23.00;14.75;;;;;;;;;;4990031;28;94264;-59
2023/09/23 03:54:52;;;;;;;21.23;13.95;;;;;;;;;;4990464;28;94254;-61
2023/09/23 03:57:19;;;;;;;21.92;14.82;;;;;;;;;;4991482;28;96433;-61
2023/09/23 03:59:46;;;;;;;24.52;13.73;;;;;;;;;;4992254;28;95866;-60
2023/09/23 04:02:12;;;;;;;28.92;13.77;;;;;;;;;;4990977;28;93551;-60
2023/09/23 04:04:38;;;;;;;18.35;12.40;;;;;;;;;;4991017;28;92551;-61
2023/09/23 04:07:07;;;;;;;16.75;12.55;;;;;;;;;;4993452;28;93174;-61
2023/09/23 04:09:34;;;;;;;22.38;13.38;;;;;;;;;;4991743;28;94660;-60
2023/09/23 04:12:00;;;;;;;28.45;12.85;;;;;;;;;;4990291;28;92474;-60
2023/09/23 04:14:27;;;;;;;18.48;12.20;;;;;;;;;;4993349;28;91891;-59
2023/09/23 04:16:54;;;;;;;20.25;12.23;;;;;;;;;;4992317;28;94474;-60
2023/09/23 04:19:20;;;;;;;21.63;11.80;;;;;;;;;;4995436;28;92707;-59
2023/09/23 04:21:46;;;;;;;19.83;11.80;;;;;;;;;;4990735;28;96137;-60
2023/09/23 04:24:13;;;;;;;20.55;10.82;;;;;;;;;;4991733;28;94069;-59
2023/09/23 04:26:39;;;;;;;16.00;10.77;;;;;;;;;;4992145;28;93234;-60
2023/09/23 04:29:06;;;;;;;15.35;10.40;;;;;;;;;;4989207;28;93451;-59
2023/09/23 04:31:32;;;;;;;16.08;10.18;;;;;;;;;;4991396;28;93405;-59
2023/09/23 04:33:59;;;;;;;15.60;9.93;;;;;;;;;;4992667;28;93056;-59
2023/09/23 04:36:25;;;;;;;16.10;10.75;;;;;;;;;;4994096;28;94319;-60
2023/09/23 04:38:52;;;;;;;14.68;10.38;;;;;;;;;;4991725;28;92246;-60
2023/09/23 04:41:18;;;;;;;17.23;11.10;;;;;;;;;;4987456;28;94151;-60
2023/09/23 04:43:45;;;;;;;18.33;10.30;;;;;;;;;;4991743;28;92546;-60
2023/09/23 04:46:14;;;;;;;20.10;10.98;;;;;;;;;;4992736;28;94849;-60
2023/09/23 04:48:42;;;;;;;14.20;10.73;;;;;;;;;;4990287;28;93862;-59
2023/09/23 04:51:09;;;;;;;16.90;9.73;;;;;;;;;;4987045;28;92746;-59
2023/09/23 04:53:35;;;;;;;15.10;9.80;;;;;;;;;;4991357;28;93259;-59
2023/09/23 04:56:06;;;;;;;17.90;10.05;;;;;;;;;;4989396;28;93433;-60
2023/09/23 04:58:33;;;;;;;16.63;10.05;;;;;;;;;;4989383;28;92755;-59
2023/09/23 05:00:59;;;;;;;20.40;9.98;;;;;;;;;;4986782;28;92392;-60
2023/09/23 05:03:26;;;;;;;14.32;8.93;;;;;;;;;;4989357;28;94109;-60
2023/09/23 05:05:52;;;;;;;17.40;9.95;;;;;;;;;;4991151;28;92541;-60
2023/09/23 05:08:19;;;;;;;15.93;9.48;;;;;;;;;;4993355;28;93260;-60
2023/09/23 05:10:45;;;;;;;20.00;9.77;;;;;;;;;;4991748;28;95324;-60
2023/09/23 05:13:12;;;;;;;18.55;9.50;;;;;;;;;;4987541;28;95536;-60
2023/09/23 05:15:38;;;;;;;16.52;9.52;;;;;;;;;;4987243;28;93510;-60
2023/09/23 05:18:05;;;;;;;15.43;9.30;;;;;;;;;;4989517;28;92518;-59
2023/09/23 05:20:33;;;;;;;17.88;9.70;;;;;;;;;;4992481;28;94264;-60
2023/09/23 05:23:02;;;;;;;17.15;9.23;;;;;;;;;;4988484;28;93401;-60
2023/09/23 05:25:28;;;;;;;16.65;9.70;;;;;;;;;;4996765;28;95675;-60
2023/09/23 05:27:55;;;;;;;23.20;9.30;;;;;;;;;;4990702;28;93784;-60
2023/09/23 05:30:22;;;;;;;16.42;9.30;;;;;;;;;;4992135;28;92627;-59
2023/09/23 05:32:48;;;;;;;15.90;8.82;;;;;;;;;;4991796;28;93240;-59
2023/09/23 05:35:15;;;;;;;22.75;9.23;;;;;;;;;;4991090;28;95818;-60
2023/09/23 05:37:41;;;;;;;20.30;8.75;;;;;;;;;;4993335;28;92661;-61
2023/09/23 05:40:10;;;;;;;16.98;8.93;;;;;;;;;;4992992;28;93570;-64
2023/09/23 05:42:38;;;;;;;15.68;7.93;;;;;;;;;;4992701;28;93400;-62
2023/09/23 05:45:06;;;;;;;20.27;9.07;;;;;;;;;;4997012;28;92865;-60
2023/09/23 05:47:33;;;;;;;12.45;8.25;;;;;;;;;;4993520;28;93220;-64
2023/09/23 05:49:59;;;;;;;12.48;8.10;;;;;;;;;;4996980;28;92797;-60
2023/09/23 05:52:26;;;;;;;17.70;8.90;;;;;;;;;;4993772;28;94245;-60
2023/09/23 05:54:52;;;;;;;16.70;7.80;;;;;;;;;;4992993;28;93565;-61
2023/09/23 05:57:18;;;;;;;12.15;7.63;;;;;;;;;;4992069;28;92380;-61
2023/09/23 05:59:45;;;;;;;20.20;8.30;;;;;;;;;;4992273;28;95759;-61
2023/09/23 06:02:12;;;;;;;14.68;8.15;;;;;;;;;;4993360;28;95107;-61
2023/09/23 06:04:38;;;;;;;17.75;7.40;;;;;;;;;;4992303;28;92435;-60
2023/09/23 06:07:05;;;;;;;18.15;7.32;;;;;;;;;;4994463;28;93177;-60
2023/09/23 06:09:31;;;;;;;22.75;7.03;;;;;;;;;;4984845;28;92652;-60
2023/09/23 06:11:57;;;;;;;14.10;7.25;;;;;;;;;;4988061;28;93204;-60
2023/09/23 06:14:25;;;;;;;13.93;6.32;;;;;;;;;;4986937;28;93958;-60
2023/09/23 06:16:51;;;;;;;13.15;6.15;;;;;;;;;;4991232;28;92018;-61
2023/09/23 06:19:18;;;;;;;14.68;7.30;;;;;;;;;;4990182;28;93193;-61
2023/09/23 06:21:45;;;;;;;13.48;6.30;;;;;;;;;;4994518;28;93462;-62
2023/09/23 06:24:12;;;;;;;12.45;6.43;;;;;;;;;;4989643;28;95140;-61
2023/09/23 06:26:38;;;;;;;17.67;5.90;;;;;;;;;;4988526;28;96648;-61
2023/09/23 06:29:05;;;;;;;9.77;6.45;;;;;;;;;;4994617;28;93402;-61
2023/09/23 06:31:31;;;;;;;15.90;6.28;;;;;;;;;;4991668;28;93354;-61
2023/09/23 06:33:58;;;;;;;10.85;5.53;;;;;;;;;;4990222;28;93678;-61
2023/09/23 06:36:24;;;;;;;10.45;6.25;;;;;;;;;;4990511;28;92567;-62
2023/09/23 06:38:50;;;;;;;12.13;5.95;;;;;;;;;;4991140;28;92451;-61
2023/09/23 06:41:17;;;;;;;10.90;5.82;;;;;;;;;;4991742;28;93569;-61
2023/09/23 06:43:43;;;;;;;13.88;5.78;;;;;;;;;;4991781;28;92529;-61
2023/09/23 06:46:11;;;;;;;12.13;5.75;;;;;;;;;;4987489;28;93186;-61
2023/09/23 06:48:38;;;;;;;9.57;5.38;;;;;;;;;;4989065;28;96473;-61
2023/09/23 06:51:04;;;;;;;15.88;6.05;;;;;;;;;;4993803;28;94397;-60
2023/09/23 06:53:31;;;;;;;15.50;5.18;;;;;;;;;;4985756;28;94732;-61
2023/09/23 06:55:57;;;;;;;10.85;4.85;;;;;;;;;;4991159;28;92588;-61
2023/09/23 06:58:24;;;;;;;12.77;5.50;;;;;;;;;;4993068;28;93441;-61
2023/09/23 07:00:50;;;;;;;13.10;5.28;;;;;;;;;;4989046;28;93638;-61
2023/09/23 07:03:17;;;;;;;9.25;5.25;;;;;;;;;;4986068;28;93105;-61
2023/09/23 07:05:43;;;;;;;7.95;4.75;;;;;;;;;;4991746;28;94238;-60
2023/09/23 07:08:10;;;;;;;14.95;5.38;;;;;;;;;;4992534;28;93375;-60
2023/09/23 07:10:38;;;;;;;12.25;4.70;;;;;;;;;;4992141;28;92547;-61
2023/09/23 07:13:05;;;;;;;11.18;5.15;;;;;;;;;;4992577;28;95123;-61
2023/09/23 07:15:38;;;;;;;16.38;5.00;;;;;;;;;;4991352;28;92684;-61
2023/09/23 07:18:05;;;;;;;11.68;5.40;;;;;;;;;;4990591;28;93835;-60
2023/09/23 07:20:32;;;;;;;12.75;5.07;;;;;;;;;;4988889;28;92661;-61
2023/09/23 07:22:59;;;;;;;15.07;5.25;;;;;;;;;;4992012;28;92438;-60
2023/09/23 07:25:26;;;;;;;11.45;4.40;;;;;;;;;;4986365;28;93512;-60
2023/09/23 07:27:53;;;;;;;9.23;4.32;;;;;;;;;;4992235;28;94763;-61
2023/09/23 07:30:20;;;;;;;12.65;4.30;;;;;;;;;;4989341;28;91746;-61
2023/09/23 07:32:46;;;;;;;14.52;4.80;;;;;;;;;;4993030;28;94230;-61
2023/09/23 07:35:13;;;;;;;14.05;4.78;;;;;;;;;;4991026;28;93430;-60
2023/09/23 07:37:40;;;;;;;8.63;4.10;;;;;;;;;;4993682;28;95448;-59
2023/09/23 07:40:07;;;;;;;9.45;4.63;;;;;;;;;;4988993;28;94672;-61
2023/09/23 07:42:33;;;;;;;17.60;6.35;;;;;;;;;;4993050;28;92553;-61
2023/09/23 07:44:59;;;;;;;10.93;3.80;;;;;;;;;;4991213;28;94366;-61
2023/09/23 07:47:26;;;;;;;15.45;5.47;;;;;;;;;;4995477;28;93413;-62
2023/09/23 07:49:55;;;;;;;10.73;3.90;;;;;;;;;;4991941;28;92838;-61
2023/09/23 07:52:22;;;;;;;7.53;3.78;;;;;;;;;;4992734;28;94062;-61
2023/09/23 07:54:48;;;;;;;14.57;4.60;;;;;;;;;;4994096;28;93085;-63
2023/09/23 07:57:15;;;;;;;12.00;4.07;;;;;;;;;;4985333;28;93481;-64
2023/09/23 07:59:42;;;;;;;11.77;3.83;;;;;;;;;;4991195;28;92577;-63
2023/09/23 08:02:08;;;;;;;11.88;4.00;;;;;;;;;;4985100;28;95418;-63
2023/09/23 08:04:35;;;;;;;8.35;3.50;;;;;;;;;;4986236;28;96606;-63
2023/09/23 08:07:01;;;;;;;8.60;3.17;;;;;;;;;;4990346;28;94323;-63
2023/09/23 08:09:28;;;;;;;11.57;3.60;;;;;;;;;;4994304;28;92707;-63
2023/09/23 08:11:54;;;;;;;9.05;3.45;;;;;;;;;;4992153;28;94293;-63
2023/09/23 08:14:20;;;;;;;10.70;3.88;;;;;;;;;;4993209;28;93437;-63
2023/09/23 08:16:48;;;;;;;9.43;3.55;;;;;;;;;;4993213;28;94051;-63
2023/09/23 08:19:16;;;;;;;11.60;3.60;;;;;;;;;;4994023;28;92670;-63
2023/09/23 08:21:42;;;;;;;8.13;3.58;;;;;;;;;;4994337;28;92594;-63
2023/09/23 08:24:09;;;;;;;11.68;3.15;;;;;;;;;;4988924;28;94270;-64
2023/09/23 08:26:36;;;;;;;8.98;3.65;;;;;;;;;;4989805;28;96018;-62
2023/09/23 08:29:02;;;;;;;16.13;3.65;;;;;;;;;;4993244;28;92546;-65
2023/09/23 08:31:29;;;;;;;14.32;4.13;;;;;;;;;;4995111;28;94355;-65
2023/09/23 08:33:55;;;;;;;8.82;3.22;;;;;;;;;;4992326;28;93610;-64
2023/09/23 08:36:22;;;;;;;11.13;3.22;;;;;;;;;;4991044;28;92474;-63
2023/09/23 08:38:48;;;;;;;8.02;3.20;;;;;;;;;;4995893;28;93182;-64
2023/09/23 08:41:16;;;;;;;16.45;3.75;;;;;;;;;;4994056;28;92598;-64
2023/09/23 08:43:42;;;;;;;7.68;3.42;;;;;;;;;;4992559;28;93307;-64
2023/09/23 08:46:10;;;;;;;7.78;3.53;;;;;;;;;;4992682;28;96117;-62
2023/09/23 08:48:38;;;;;;;11.07;3.25;;;;;;;;;;4992483;28;92642;-62
2023/09/23 08:51:08;;;;;;;8.02;3.28;;;;;;;;;;4992689;28;94993;-67
2023/09/23 08:53:37;;;;;;;12.02;3.80;;;;;;;;;;4992912;28;93269;-64
2023/09/23 08:56:05;;;;;;;6.63;3.17;;;;;;;;;;4986258;28;92897;-64
2023/09/23 08:58:31;;;;;;;11.40;3.63;;;;;;;;;;4989387;28;94251;-64
2023/09/23 09:00:58;;;;;;;6.90;3.40;;;;;;;;;;4991262;28;94862;-64
2023/09/23 09:03:24;;;;;;;7.30;2.97;;;;;;;;;;4993441;28;95510;-67
2023/09/23 09:05:51;;;;;;;7.88;3.05;;;;;;;;;;4994260;28;93514;-64
2023/09/23 09:08:18;;;;;;;10.30;3.20;;;;;;;;;;4992244;28;94105;-63
2023/09/23 09:10:46;;;;;;;11.15;3.90;;;;;;;;;;4991540;28;92792;-64
2023/09/23 09:13:13;;;;;;;10.20;3.65;;;;;;;;;;4994135;28;93658;-64
2023/09/23 09:15:39;;;;;;;7.45;3.50;;;;;;;;;;4992498;28;95082;-64
2023/09/23 09:18:06;;;;;;;9.05;3.72;;;;;;;;;;4988278;28;96679;-64
2023/09/23 09:20:33;;;;;;;5.85;3.13;;;;;;;;;;4992416;28;93716;-63
2023/09/23 09:23:00;;;;;;;6.70;2.67;;;;;;;;;;4995889;28;92513;-62
2023/09/23 09:25:26;;;;;;;10.95;3.58;;;;;;;;;;4991371;28;93592;-63
2023/09/23 09:27:55;;;;;;;6.88;3.10;;;;;;;;;;4989028;28;92541;-63
2023/09/23 09:30:21;;;;;;;12.60;3.42;;;;;;;;;;4991225;28;93799;-63
2023/09/23 09:32:48;;;;;;;4.95;2.40;;;;;;;;;;4984409;28;92618;-63
2023/09/23 09:35:17;;;;;;;8.73;2.90;;;;;;;;;;4992819;28;92544;-62
2023/09/23 09:37:45;;;;;;;7.35;2.65;;;;;;;;;;4988785;28;93349;-62
2023/09/23 09:40:14;;;;;;;8.98;2.90;;;;;;;;;;4991773;28;95836;-63
2023/09/23 09:42:42;;;;;;;6.60;3.03;;;;;;;;;;4993895;28;92938;-63
2023/09/23 09:45:09;;;;;;;7.93;2.90;;;;;;;;;;4995749;28;92777;-62
2023/09/23 09:47:38;;;;;;;12.20;2.78;;;;;;;;;;4990695;28;92821;-63
2023/09/23 09:50:05;;;;;;;10.63;3.47;;;;;;;;;;4991582;28;93475;-63
2023/09/23 09:52:32;;;;;;;8.85;2.85;;;;;;;;;;4989907;28;93730;-62
2023/09/23 09:54:59;;;;;;;12.40;3.10;;;;;;;;;;4995264;28;92592;-62
2023/09/23 09:57:29;;;;;;;10.57;3.05;;;;;;;;;;4992085;28;93140;-63
2023/09/23 09:59:59;;;;;;;6.07;3.10;;;;;;;;;;4984231;28;93702;-63
2023/09/23 10:02:26;;;;;;;11.13;3.53;;;;;;;;;;4985428;28;92809;-63
2023/09/23 10:04:53;;;;;;;13.20;3.42;;;;;;;;;;4993934;28;95353;-63
2023/09/23 10:07:22;;;;;;;12.70;3.47;;;;;;;;;;4990395;28;92411;-63
2023/09/23 10:09:54;;;;;;;11.75;2.70;;;;;;;;;;4987254;28;93524;-62
2023/09/23 10:12:25;;;;;;;6.78;3.03;;;;;;;;;;4987108;28;93447;-64
2023/09/23 10:14:52;;;;;;;14.60;3.30;;;;;;;;;;4992957;28;92418;-64
2023/09/23 10:17:20;;;;;;;9.80;3.30;;;;;;;;;;4988312;28;94370;-64
2023/09/23 10:19:49;;;;;;;10.02;3.25;;;;;;;;;;4987989;28;93465;-61
2023/09/23 10:22:20;;;;;;;11.95;3.08;;;;;;;;;;4989612;28;92268;-64
2023/09/23 10:25:00;;;;;;;6.78;2.85;;;;;;;;;;4984558;28;93303;-62
2023/09/23 10:27:27;;;;;;;8.32;3.10;;;;;;;;;;4985382;28;93422;-63
2023/09/23 10:29:53;;;;;;;6.68;2.70;;;;;;;;;;4990106;28;95361;-63
2023/09/23 10:32:23;;;;;;;8.80;4.07;;;;;;;;;;4990716;28;93496;-63
2023/09/23 10:34:50;;;;;;;7.28;3.00;;;;;;;;;;4993061;28;92513;-64
2023/09/23 10:37:26;;;;;;;11.65;3.72;;;;;;;;;;4989033;28;93106;-64
2023/09/23 10:39:52;;;;;;;13.00;3.78;;;;;;;;;;4988424;28;93602;-63
2023/09/23 10:42:19;;;;;;;9.30;2.72;;;;;;;;;;4990079;28;92527;-63
2023/09/23 10:44:47;;;;;;;13.10;2.90;;;;;;;;;;4988434;28;93164;-62
2023/09/23 10:47:14;;;;;;;7.85;3.17;;;;;;;;;;4984349;28;93039;-63
2023/09/23 10:49:40;;;;;;;16.67;3.63;;;;;;;;;;4994843;28;92561;-63
2023/09/23 10:52:07;;;;;;;10.73;3.28;;;;;;;;;;4991489;28;93362;-63
2023/09/23 10:54:36;;;;;;;10.95;2.38;;;;;;;;;;4991163;28;94830;-63
2023/09/23 10:57:02;;;;;;;8.63;2.88;;;;;;;;;;4985978;28;95551;-63
2023/09/23 10:59:29;;;;;;;11.30;3.35;;;;;;;;;;4989540;28;93393;-63
2023/09/23 11:01:55;;;;;;;8.02;2.85;;;;;;;;;;4990306;28;92636;-63
2023/09/23 11:04:23;;;;;;;6.35;3.10;;;;;;;;;;4990013;28;93160;-63
2023/09/23 11:06:50;;;;;;;13.10;3.30;;;;;;;;;;4988640;28;94347;-62
2023/09/23 11:09:20;;;;;;;7.60;3.03;;;;;;;;;;4983142;28;92605;-62
2023/09/23 11:11:47;;;;;;;8.10;2.90;;;;;;;;;;4996675;28;93454;-62
2023/09/23 11:14:19;;;;;;;6.32;2.55;;;;;;;;;;4991642;28;92685;-62
2023/09/23 11:16:45;;;;;;;6.63;2.03;;;;;;;;;;4988056;28;92959;-63
2023/09/23 11:19:12;;;;;;;7.22;1.80;;;;;;;;;;4982700;27;95785;-64
2023/09/23 11:21:46;;;;;;;5.95;1.98;;;;;;;;;;4991603;28;92438;-67
2023/09/23 11:24:15;;;;;;;5.97;1.60;;;;;;;;;;4984705;28;94010;-62
2023/09/23 11:26:41;;;;;;;2.22;1.00;;;;;;;;;;4987618;28;93500;-61
2023/09/23 11:29:08;;;;;;;4.80;1.17;;;;;;;;;;4989386;28;92542;-61
2023/09/23 11:31:34;;;;;;;7.47;1.10;;;;;;;;;;4987965;28;93987;-61
2023/09/23 11:34:01;;;;;;;5.57;1.33;;;;;;;;;;4995677;28;93393;-61
2023/09/23 11:36:28;;;;;;;6.85;1.17;;;;;;;;;;4991856;28;93112;-61
2023/09/23 11:38:54;;;;;;;4.25;1.10;;;;;;;;;;4987295;28;93430;-62
2023/09/23 11:41:20;;;;;;;4.47;1.42;;;;;;;;;;4983571;28;92973;-61
2023/09/23 11:43:50;;;;;;;3.85;1.45;;;;;;;;;;4984535;28;94916;-62
2023/09/23 11:46:19;;;;;;;6.20;1.60;;;;;;;;;;4990770;28;95176;-62
2023/09/23 11:48:48;;;;;;;8.07;2.08;;;;;;;;;;4988938;28;92444;-62
2023/09/23 11:51:16;;;;;;;8.32;1.60;;;;;;;;;;4992053;28;93088;-62
2023/09/23 11:53:43;;;;;;;6.40;1.80;;;;;;;;;;4991763;28;94427;-62
2023/09/23 11:56:11;;;;;;;7.63;1.60;;;;;;;;;;4994685;28;92717;-62
2023/09/23 11:58:37;;;;;;;8.77;1.50;;;;;;;;;;4991951;28;92642;-62
2023/09/23 12:01:05;;;;;;;6.53;1.58;;;;;;;;;;4992466;28;91784;-62
2023/09/23 12:03:31;;;;;;;3.33;1.40;;;;;;;;;;4991109;28;92552;-62
2023/09/23 12:05:58;;;;;;;6.03;1.75;;;;;;;;;;4991948;28;93717;-62
2023/09/23 12:08:24;;;;;;;4.63;1.40;;;;;;;;;;4990417;28;94804;-63
2023/09/23 12:10:51;;;;;;;4.20;1.40;;;;;;;;;;4991641;28;95505;-62
2023/09/23 12:13:18;;;;;;;4.25;1.10;;;;;;;;;;4990761;28;93802;-62
2023/09/23 12:15:44;;;;;;;5.10;1.20;;;;;;;;;;4994732;28;92508;-62
2023/09/23 12:18:11;;;;;;;4.45;1.00;;;;;;;;;;4991822;28;94734;-62
2023/09/23 12:20:37;;;;;;;9.60;1.05;;;;;;;;;;4994198;28;92822;-62
2023/09/23 12:23:04;;;;;;;4.70;1.05;;;;;;;;;;4995884;28;93137;-62
2023/09/23 12:25:30;;;;;;;5.43;1.63;;;;;;;;;;4995268;28;92645;-61
2023/09/23 12:27:56;;;;;;;3.42;1.00;;;;;;;;;;4995118;28;92599;-62
2023/09/23 12:30:23;;;;;;;2.80;1.25;;;;;;;;;;4994208;28;93034;-62
2023/09/23 12:32:49;;;;;;;2.90;1.13;;;;;;;;;;4993298;28;95812;-61
2023/09/23 12:35:16;;;;;;;6.72;1.20;;;;;;;;;;4994847;28;93146;-61
2023/09/23 12:37:42;;;;;;;4.85;0.93;;;;;;;;;;4997299;28;93138;-60
2023/09/23 12:40:09;;;;;;;3.83;0.65;;;;;;;;;;4993911;28;93110;-60
2023/09/23 12:42:36;;;;;;;2.63;0.88;;;;;;;;;;4993595;28;93339;-60
2023/09/23 12:45:03;;;;;;;3.38;0.60;;;;;;;;;;4993935;28;93168;-61
2023/09/23 12:47:32;;;;;;;3.60;0.67;;;;;;;;;;4994492;28;92531;-60
2023/09/23 12:50:18;;;;;;;1.20;0.57;;;;;;;;;;4994838;28;95619;-60
2023/09/23 12:52:44;;;;;;;5.35;0.90;;;;;;;;;;4999210;28;94534;-61
2023/09/23 12:55:11;;;;;;;5.43;1.10;;;;;;;;;;4994782;28;92424;-61
2023/09/23 12:57:37;;;;;;;5.88;1.05;;;;;;;;;;4992739;28;95010;-60
2023/09/23 13:00:04;;;;;;;9.27;0.77;;;;;;;;;;4996912;28;93441;-61
2023/09/23 13:02:31;;;;;;;3.63;0.98;;;;;;;;;;4994480;28;94085;-61
2023/09/23 13:04:58;;;;;;;2.70;0.70;;;;;;;;;;4994364;28;93540;-61
2023/09/23 13:07:25;;;;;;;1.02;0.50;;;;;;;;;;4994050;28;92567;-61
2023/09/23 13:09:51;;;;;;;5.65;0.50;;;;;;;;;;4994238;28;93182;-61
2023/09/23 13:12:17;;;;;;;4.20;1.10;;;;;;;;;;4990988;28;94567;-61
2023/09/23 13:14:44;;;;;;;4.50;1.15;;;;;;;;;;4994540;28;91719;-61
2023/09/23 13:17:11;;;;;;;2.42;0.85;;;;;;;;;;4993779;28;92502;-60
2023/09/23 13:19:37;;;;;;;2.97;0.70;;;;;;;;;;4994221;28;94476;-61
2023/09/23 13:22:05;;;;;;;1.30;0.60;;;;;;;;;;4995697;28;95023;-61
2023/09/23 13:24:33;;;;;;;3.50;0.80;;;;;;;;;;4993053;28;93445;-60
2023/09/23 13:26:59;;;;;;;1.73;0.50;;;;;;;;;;4990320;28;92625;-61
2023/09/23 13:29:25;;;;;;;116.70;76.28;;;;;;;;;;4993093;28;93213;-61
2023/09/23 13:31:52;;;;;;;10.70;6.35;;;;;;;;;;4992422;28;95662;-61
2023/09/23 13:34:18;;;;;;;122.80;90.63;;;;;;;;;;4994168;28;93192;-61
2023/09/23 13:36:44;;;;;;;0.57;0.35;;;;;;;;;;4992584;28;93340;-61
2023/09/23 13:39:12;;;;;;;3.30;0.45;;;;;;;;;;4993762;28;92727;-61
2023/09/23 13:41:38;;;;;;;4.50;0.80;;;;;;;;;;4993330;28;92557;-61
2023/09/23 13:44:07;;;;;;;2.53;0.70;;;;;;;;;;4996778;28;93185;-61
2023/09/23 13:46:34;;;;;;;2.17;0.75;;;;;;;;;;4992713;28;94947;-62
2023/09/23 13:49:00;;;;;;;3.15;0.70;;;;;;;;;;4993436;28;95530;-62
2023/09/23 13:51:27;;;;;;;1.00;0.43;;;;;;;;;;4992897;28;92651;-62
2023/09/23 13:53:53;;;;;;;4.97;0.60;;;;;;;;;;4994237;28;93269;-62
2023/09/23 13:56:19;;;;;;;2.05;0.70;;;;;;;;;;4993509;28;93221;-62
2023/09/23 13:58:46;;;;;;;1.05;0.40;;;;;;;;;;4993245;28;92932;-62
2023/09/23 14:01:16;;;;;;;3.30;0.77;;;;;;;;;;4993391;28;92431;-62
2023/09/23 14:03:43;;;;;;;2.35;0.82;;;;;;;;;;4993743;28;93308;-62
2023/09/23 14:06:09;;;;;;;2.13;0.65;;;;;;;;;;4993681;28;92526;-62
2023/09/23 14:08:35;;;;;;;3.03;0.80;;;;;;;;;;4993115;28;93064;-63
2023/09/23 14:11:05;;;;;;;3.10;0.70;;;;;;;;;;4991438;28;94942;-62
2023/09/23 14:13:31;;;;;;;2.23;0.97;;;;;;;;;;4989418;28;92641;-62
2023/09/23 14:15:58;;;;;;;6.38;0.95;;;;;;;;;;4992799;28;93080;-62
2023/09/23 14:18:24;;;;;;;3.67;1.10;;;;;;;;;;4991944;28;93200;-62
2023/09/23 14:20:51;;;;;;;5.05;1.20;;;;;;;;;;4993081;28;92760;-63
2023/09/23 14:23:18;;;;;;;5.72;1.40;;;;;;;;;;4992603;28;93316;-62
2023/09/23 14:25:44;;;;;;;3.03;0.95;;;;;;;;;;4995288;28;95527;-62
2023/09/23 14:28:11;;;;;;;1.45;0.73;;;;;;;;;;4992766;28;94090;-62
2023/09/23 14:30:37;;;;;;;2.78;0.80;;;;;;;;;;4992650;28;92387;-62
2023/09/23 14:33:05;;;;;;;2.13;0.85;;;;;;;;;;4992701;28;92482;-62